Startpagina
METAR-TAF:

METAR-TAF

Vliegvelden :

Bagdad, Irak

Internationale Luchthaven Baghdad

breedte: 33-15-45N, lengte: 44-14-04E, hoogte: 35 m

Actueel weer

Dit bericht is 29 minuten geleden gemaakt, om 12:30 UTC
Wind 6 kt uit het westzuidwesten, variërend tussen het zuidwesten en het westnoordwesten
Temperatuur 19°C
Vochtigheid 43%
Druk 1011 hPa
Zicht: 5000 m

METAR: ORBI 221230Z 25006KT 220V290 5000 NSC 19/06 Q1011

Tijdstip: 15:59 (12:59 UTC)

Verwachting

Dit bericht is 2 uur en het 59 minuten geleden gemaakt, om 10:00 UTC
Verwachting geldig van 22 om 12 UTC tot 23 om 12 UTC
Wind 8 kt uit het westnoordwesten
Zicht: 8000 m

TAF: ORBI 221000Z 2212/2312 30008KT 8000 NSC

Waarnemingen en weersverwachtingen van meer dan 4000 vliegvelden (METAR en TAF).

De beschikbare stations zijn de gele en rode punten op de kaart.

Ga met uw muis naar het station om de naam te zien.

Klik dan om waarnemingen en weersverwachtingen te zien.

kaart wijzigen: klik op de groene knoppen met een zwart kruis om in te zoomen, op de groene knop met een streepje om uit te zoomen of op de groene pijlen voor aangrenzende kaarten.


METAR-TAF: